sensor_id;sensor_type;location;lat;lon;timestamp;temperature;humidity
2729;DHT22;1372;47.956;7.830;2022-07-24T00:02:03;20.40;99.90
2729;DHT22;1372;47.956;7.830;2022-07-24T00:04:32;20.30;99.90
2729;DHT22;1372;47.956;7.830;2022-07-24T00:07:02;20.30;99.90
2729;DHT22;1372;47.956;7.830;2022-07-24T00:09:31;20.30;99.90
2729;DHT22;1372;47.956;7.830;2022-07-24T00:12:00;20.30;99.90
2729;DHT22;1372;47.956;7.830;2022-07-24T00:14:30;20.30;99.90
2729;DHT22;1372;47.956;7.830;2022-07-24T00:17:00;20.30;99.90
2729;DHT22;1372;47.956;7.830;2022-07-24T00:19:48;20.20;99.90
2729;DHT22;1372;47.956;7.830;2022-07-24T00:22:17;20.20;99.90
2729;DHT22;1372;47.956;7.830;2022-07-24T00:24:46;20.20;99.90
2729;DHT22;1372;47.956;7.830;2022-07-24T00:27:14;20.10;99.90
2729;DHT22;1372;47.956;7.830;2022-07-24T00:29:47;20.10;99.90
2729;DHT22;1372;47.956;7.830;2022-07-24T00:32:21;20.10;99.90
2729;DHT22;1372;47.956;7.830;2022-07-24T00:34:51;20.10;99.90
2729;DHT22;1372;47.956;7.830;2022-07-24T00:37:20;20.10;99.90
2729;DHT22;1372;47.956;7.830;2022-07-24T00:40:09;20.10;99.90
2729;DHT22;1372;47.956;7.830;2022-07-24T00:42:38;20.00;99.90
2729;DHT22;1372;47.956;7.830;2022-07-24T00:45:09;20.00;99.90
2729;DHT22;1372;47.956;7.830;2022-07-24T00:47:52;20.00;99.90
2729;DHT22;1372;47.956;7.830;2022-07-24T00:50:23;20.00;99.90
2729;DHT22;1372;47.956;7.830;2022-07-24T00:52:53;20.00;99.90
2729;DHT22;1372;47.956;7.830;2022-07-24T00:55:23;19.90;99.90
2729;DHT22;1372;47.956;7.830;2022-07-24T00:57:52;19.80;99.90
2729;DHT22;1372;47.956;7.830;2022-07-24T01:00:23;19.80;99.90
2729;DHT22;1372;47.956;7.830;2022-07-24T01:02:52;19.80;99.90
2729;DHT22;1372;47.956;7.830;2022-07-24T01:05:21;19.80;99.90
2729;DHT22;1372;47.956;7.830;2022-07-24T01:07:50;19.80;99.90
2729;DHT22;1372;47.956;7.830;2022-07-24T01:10:38;19.80;99.90
2729;DHT22;1372;47.956;7.830;2022-07-24T01:13:08;19.70;99.90
2729;DHT22;1372;47.956;7.830;2022-07-24T01:15:39;19.70;99.90
2729;DHT22;1372;47.956;7.830;2022-07-24T01:18:28;19.70;99.90
2729;DHT22;1372;47.956;7.830;2022-07-24T01:21:17;19.70;99.90
2729;DHT22;1372;47.956;7.830;2022-07-24T01:23:46;19.60;99.90
2729;DHT22;1372;47.956;7.830;2022-07-24T01:26:15;19.60;99.90
2729;DHT22;1372;47.956;7.830;2022-07-24T01:28:44;19.60;99.90
2729;DHT22;1372;47.956;7.830;2022-07-24T01:31:12;19.60;99.90
2729;DHT22;1372;47.956;7.830;2022-07-24T01:33:41;19.70;99.90
2729;DHT22;1372;47.956;7.830;2022-07-24T01:36:12;19.60;99.90
2729;DHT22;1372;47.956;7.830;2022-07-24T01:38:42;19.50;99.90
2729;DHT22;1372;47.956;7.830;2022-07-24T01:41:11;19.50;99.90
2729;DHT22;1372;47.956;7.830;2022-07-24T01:43:40;19.40;99.90
2729;DHT22;1372;47.956;7.830;2022-07-24T01:46:11;19.40;99.90
2729;DHT22;1372;47.956;7.830;2022-07-24T01:48:41;19.40;99.90
2729;DHT22;1372;47.956;7.830;2022-07-24T01:51:11;19.30;99.90
2729;DHT22;1372;47.956;7.830;2022-07-24T01:53:40;19.30;99.90
2729;DHT22;1372;47.956;7.830;2022-07-24T01:56:10;19.40;99.90
2729;DHT22;1372;47.956;7.830;2022-07-24T01:58:39;19.40;99.90
2729;DHT22;1372;47.956;7.830;2022-07-24T02:01:10;19.30;99.90
2729;DHT22;1372;47.956;7.830;2022-07-24T02:03:39;19.30;99.90
2729;DHT22;1372;47.956;7.830;2022-07-24T02:06:08;19.40;99.90
2729;DHT22;1372;47.956;7.830;2022-07-24T02:08:37;19.30;99.90
2729;DHT22;1372;47.956;7.830;2022-07-24T02:11:06;19.40;99.90
2729;DHT22;1372;47.956;7.830;2022-07-24T02:13:36;19.40;99.90
2729;DHT22;1372;47.956;7.830;2022-07-24T02:16:05;19.40;99.90
2729;DHT22;1372;47.956;7.830;2022-07-24T02:18:35;19.30;99.90
2729;DHT22;1372;47.956;7.830;2022-07-24T02:21:03;19.20;99.90
2729;DHT22;1372;47.956;7.830;2022-07-24T02:23:32;19.20;99.90
2729;DHT22;1372;47.956;7.830;2022-07-24T02:26:01;19.20;99.90
2729;DHT22;1372;47.956;7.830;2022-07-24T02:28:30;19.20;99.90
2729;DHT22;1372;47.956;7.830;2022-07-24T02:31:01;19.20;99.90
2729;DHT22;1372;47.956;7.830;2022-07-24T02:33:30;19.10;99.90
2729;DHT22;1372;47.956;7.830;2022-07-24T02:35:59;19.10;99.90
2729;DHT22;1372;47.956;7.830;2022-07-24T02:38:27;19.10;99.90
2729;DHT22;1372;47.956;7.830;2022-07-24T02:41:16;19.00;99.90
2729;DHT22;1372;47.956;7.830;2022-07-24T02:43:45;19.10;99.90
2729;DHT22;1372;47.956;7.830;2022-07-24T02:46:35;19.10;99.90
2729;DHT22;1372;47.956;7.830;2022-07-24T02:49:04;19.00;99.90
2729;DHT22;1372;47.956;7.830;2022-07-24T02:51:33;19.00;99.90
2729;DHT22;1372;47.956;7.830;2022-07-24T02:54:02;19.00;99.90
2729;DHT22;1372;47.956;7.830;2022-07-24T02:56:30;19.10;99.90
2729;DHT22;1372;47.956;7.830;2022-07-24T02:58:59;19.00;99.90
2729;DHT22;1372;47.956;7.830;2022-07-24T03:01:28;19.10;99.90
2729;DHT22;1372;47.956;7.830;2022-07-24T03:04:18;19.00;99.90
2729;DHT22;1372;47.956;7.830;2022-07-24T03:06:46;19.00;99.90
2729;DHT22;1372;47.956;7.830;2022-07-24T03:09:35;19.00;99.90
2729;DHT22;1372;47.956;7.830;2022-07-24T03:12:04;18.90;99.90
2729;DHT22;1372;47.956;7.830;2022-07-24T03:14:33;18.90;99.90
2729;DHT22;1372;47.956;7.830;2022-07-24T03:17:02;18.90;99.90
2729;DHT22;1372;47.956;7.830;2022-07-24T03:19:32;18.90;99.90
2729;DHT22;1372;47.956;7.830;2022-07-24T03:22:01;18.90;99.90
2729;DHT22;1372;47.956;7.830;2022-07-24T03:24:30;18.80;99.90
2729;DHT22;1372;47.956;7.830;2022-07-24T03:26:59;18.80;99.90
2729;DHT22;1372;47.956;7.830;2022-07-24T03:29:28;18.80;99.90
2729;DHT22;1372;47.956;7.830;2022-07-24T03:31:57;18.80;99.90
2729;DHT22;1372;47.956;7.830;2022-07-24T03:34:25;18.80;99.90
2729;DHT22;1372;47.956;7.830;2022-07-24T03:36:56;18.70;99.90
2729;DHT22;1372;47.956;7.830;2022-07-24T03:39:24;18.70;99.90
2729;DHT22;1372;47.956;7.830;2022-07-24T03:42:12;18.60;99.90
2729;DHT22;1372;47.956;7.830;2022-07-24T03:44:41;18.60;99.90
2729;DHT22;1372;47.956;7.830;2022-07-24T03:47:10;18.60;99.90
2729;DHT22;1372;47.956;7.830;2022-07-24T03:49:58;18.60;99.90
2729;DHT22;1372;47.956;7.830;2022-07-24T03:52:48;18.60;99.90
2729;DHT22;1372;47.956;7.830;2022-07-24T03:55:18;18.60;99.90
2729;DHT22;1372;47.956;7.830;2022-07-24T03:57:49;18.50;99.90
2729;DHT22;1372;47.956;7.830;2022-07-24T04:00:17;18.50;99.90
2729;DHT22;1372;47.956;7.830;2022-07-24T04:03:06;18.60;99.90
2729;DHT22;1372;47.956;7.830;2022-07-24T04:05:34;18.60;99.90
2729;DHT22;1372;47.956;7.830;2022-07-24T04:08:25;18.50;99.90
2729;DHT22;1372;47.956;7.830;2022-07-24T04:10:54;18.50;99.90
2729;DHT22;1372;47.956;7.830;2022-07-24T04:13:29;18.50;99.90
2729;DHT22;1372;47.956;7.830;2022-07-24T04:15:58;18.50;99.90
2729;DHT22;1372;47.956;7.830;2022-07-24T04:18:27;18.60;99.90
2729;DHT22;1372;47.956;7.830;2022-07-24T04:20:56;18.50;99.90
2729;DHT22;1372;47.956;7.830;2022-07-24T04:23:26;18.50;99.90
2729;DHT22;1372;47.956;7.830;2022-07-24T04:26:14;18.50;99.90
2729;DHT22;1372;47.956;7.830;2022-07-24T04:28:45;18.50;99.90
2729;DHT22;1372;47.956;7.830;2022-07-24T04:31:14;18.50;99.90
2729;DHT22;1372;47.956;7.830;2022-07-24T04:33:43;18.50;99.90
2729;DHT22;1372;47.956;7.830;2022-07-24T04:36:31;18.50;99.90
2729;DHT22;1372;47.956;7.830;2022-07-24T04:39:02;18.50;99.90
2729;DHT22;1372;47.956;7.830;2022-07-24T04:41:34;18.50;99.90
2729;DHT22;1372;47.956;7.830;2022-07-24T04:44:03;18.50;99.90
2729;DHT22;1372;47.956;7.830;2022-07-24T04:46:32;18.50;99.90
2729;DHT22;1372;47.956;7.830;2022-07-24T04:49:01;18.60;99.90
2729;DHT22;1372;47.956;7.830;2022-07-24T04:51:32;18.60;99.90
2729;DHT22;1372;47.956;7.830;2022-07-24T04:54:03;18.60;99.90
2729;DHT22;1372;47.956;7.830;2022-07-24T04:56:51;18.60;99.90
2729;DHT22;1372;47.956;7.830;2022-07-24T04:59:22;18.70;99.90
2729;DHT22;1372;47.956;7.830;2022-07-24T05:01:51;18.70;99.90
2729;DHT22;1372;47.956;7.830;2022-07-24T05:04:24;18.70;99.90
2729;DHT22;1372;47.956;7.830;2022-07-24T05:06:53;18.80;99.90
2729;DHT22;1372;47.956;7.830;2022-07-24T05:09:23;18.80;99.90
2729;DHT22;1372;47.956;7.830;2022-07-24T05:11:52;18.80;99.90
2729;DHT22;1372;47.956;7.830;2022-07-24T05:14:36;18.90;99.90
2729;DHT22;1372;47.956;7.830;2022-07-24T05:17:05;18.90;99.90
2729;DHT22;1372;47.956;7.830;2022-07-24T05:19:34;19.00;99.90
2729;DHT22;1372;47.956;7.830;2022-07-24T05:22:03;19.00;99.90
2729;DHT22;1372;47.956;7.830;2022-07-24T05:24:53;19.10;99.90
2729;DHT22;1372;47.956;7.830;2022-07-24T05:27:22;19.20;99.90
2729;DHT22;1372;47.956;7.830;2022-07-24T05:29:51;19.30;99.90
2729;DHT22;1372;47.956;7.830;2022-07-24T05:32:26;19.30;99.90
2729;DHT22;1372;47.956;7.830;2022-07-24T05:34:56;19.40;99.90
2729;DHT22;1372;47.956;7.830;2022-07-24T05:37:25;19.50;99.90
2729;DHT22;1372;47.956;7.830;2022-07-24T05:39:55;19.70;99.90
2729;DHT22;1372;47.956;7.830;2022-07-24T05:42:24;19.80;99.90
2729;DHT22;1372;47.956;7.830;2022-07-24T05:44:53;19.90;99.90
2729;DHT22;1372;47.956;7.830;2022-07-24T05:47:37;19.90;99.90
2729;DHT22;1372;47.956;7.830;2022-07-24T05:50:35;20.00;99.90
2729;DHT22;1372;47.956;7.830;2022-07-24T05:53:04;20.10;99.90
2729;DHT22;1372;47.956;7.830;2022-07-24T05:55:53;20.20;99.90
2729;DHT22;1372;47.956;7.830;2022-07-24T05:58:23;20.30;99.90
2729;DHT22;1372;47.956;7.830;2022-07-24T06:00:52;20.40;99.90
2729;DHT22;1372;47.956;7.830;2022-07-24T06:03:21;20.40;99.90
2729;DHT22;1372;47.956;7.830;2022-07-24T06:05:50;20.50;99.90
2729;DHT22;1372;47.956;7.830;2022-07-24T06:08:21;20.60;99.90
2729;DHT22;1372;47.956;7.830;2022-07-24T06:10:49;20.70;99.90
2729;DHT22;1372;47.956;7.830;2022-07-24T06:13:20;20.70;99.90
2729;DHT22;1372;47.956;7.830;2022-07-24T06:16:08;20.80;99.90
2729;DHT22;1372;47.956;7.830;2022-07-24T06:18:37;20.80;99.90
2729;DHT22;1372;47.956;7.830;2022-07-24T06:21:06;20.90;99.90
2729;DHT22;1372;47.956;7.830;2022-07-24T06:23:35;20.90;99.90
2729;DHT22;1372;47.956;7.830;2022-07-24T06:26:04;21.00;99.90
2729;DHT22;1372;47.956;7.830;2022-07-24T06:28:35;21.10;99.90
2729;DHT22;1372;47.956;7.830;2022-07-24T06:31:04;21.10;99.90
2729;DHT22;1372;47.956;7.830;2022-07-24T06:33:33;21.20;99.90
2729;DHT22;1372;47.956;7.830;2022-07-24T06:36:02;21.30;99.90
2729;DHT22;1372;47.956;7.830;2022-07-24T06:38:48;21.30;99.90
2729;DHT22;1372;47.956;7.830;2022-07-24T06:41:17;21.30;99.90
2729;DHT22;1372;47.956;7.830;2022-07-24T06:43:47;21.40;99.90
2729;DHT22;1372;47.956;7.830;2022-07-24T06:46:36;21.50;99.90
2729;DHT22;1372;47.956;7.830;2022-07-24T06:49:06;21.50;99.90
2729;DHT22;1372;47.956;7.830;2022-07-24T06:51:38;21.70;99.90
2729;DHT22;1372;47.956;7.830;2022-07-24T06:54:07;21.70;99.90
2729;DHT22;1372;47.956;7.830;2022-07-24T06:56:35;21.80;99.90
2729;DHT22;1372;47.956;7.830;2022-07-24T06:59:08;21.90;99.90
2729;DHT22;1372;47.956;7.830;2022-07-24T07:01:37;21.90;99.90
2729;DHT22;1372;47.956;7.830;2022-07-24T07:04:06;22.00;99.90
2729;DHT22;1372;47.956;7.830;2022-07-24T07:06:34;22.20;99.90
2729;DHT22;1372;47.956;7.830;2022-07-24T07:09:09;22.20;99.90
2729;DHT22;1372;47.956;7.830;2022-07-24T07:11:41;22.30;99.90
2729;DHT22;1372;47.956;7.830;2022-07-24T07:14:28;22.30;99.90
2729;DHT22;1372;47.956;7.830;2022-07-24T07:17:16;22.40;99.90
2729;DHT22;1372;47.956;7.830;2022-07-24T07:20:06;22.40;99.90
2729;DHT22;1372;47.956;7.830;2022-07-24T07:22:38;22.50;99.90
2729;DHT22;1372;47.956;7.830;2022-07-24T07:25:08;22.60;99.90
2729;DHT22;1372;47.956;7.830;2022-07-24T07:27:38;22.70;99.90
2729;DHT22;1372;47.956;7.830;2022-07-24T07:30:28;22.70;99.90
2729;DHT22;1372;47.956;7.830;2022-07-24T07:32:57;22.80;99.90
2729;DHT22;1372;47.956;7.830;2022-07-24T07:35:46;22.80;99.90
2729;DHT22;1372;47.956;7.830;2022-07-24T07:38:14;22.90;99.90
2729;DHT22;1372;47.956;7.830;2022-07-24T07:40:49;23.00;99.90
2729;DHT22;1372;47.956;7.830;2022-07-24T07:43:39;23.10;99.90
2729;DHT22;1372;47.956;7.830;2022-07-24T07:46:09;23.20;99.90
2729;DHT22;1372;47.956;7.830;2022-07-24T07:48:38;23.20;99.90
2729;DHT22;1372;47.956;7.830;2022-07-24T07:51:07;23.40;99.90
2729;DHT22;1372;47.956;7.830;2022-07-24T07:53:36;23.40;99.90
2729;DHT22;1372;47.956;7.830;2022-07-24T07:56:05;23.50;99.90
2729;DHT22;1372;47.956;7.830;2022-07-24T07:58:34;23.50;99.90
2729;DHT22;1372;47.956;7.830;2022-07-24T08:01:05;23.60;99.90
2729;DHT22;1372;47.956;7.830;2022-07-24T08:03:36;23.70;99.90
2729;DHT22;1372;47.956;7.830;2022-07-24T08:06:25;23.70;99.90
2729;DHT22;1372;47.956;7.830;2022-07-24T08:08:56;23.70;99.90
2729;DHT22;1372;47.956;7.830;2022-07-24T08:11:29;23.80;99.90
2729;DHT22;1372;47.956;7.830;2022-07-24T08:14:17;23.80;99.90
2729;DHT22;1372;47.956;7.830;2022-07-24T08:16:46;23.90;99.90
2729;DHT22;1372;47.956;7.830;2022-07-24T08:19:32;24.00;99.90
2729;DHT22;1372;47.956;7.830;2022-07-24T08:22:01;24.00;99.90
2729;DHT22;1372;47.956;7.830;2022-07-24T08:24:38;24.10;99.90
2729;DHT22;1372;47.956;7.830;2022-07-24T08:27:09;24.20;99.90
2729;DHT22;1372;47.956;7.830;2022-07-24T08:29:38;24.20;99.90
2729;DHT22;1372;47.956;7.830;2022-07-24T08:32:27;24.30;99.90
2729;DHT22;1372;47.956;7.830;2022-07-24T08:34:57;24.30;99.90
2729;DHT22;1372;47.956;7.830;2022-07-24T08:37:42;24.40;99.90
2729;DHT22;1372;47.956;7.830;2022-07-24T08:40:12;24.50;99.90
2729;DHT22;1372;47.956;7.830;2022-07-24T08:42:51;24.60;99.90
2729;DHT22;1372;47.956;7.830;2022-07-24T08:45:41;24.60;99.90
2729;DHT22;1372;47.956;7.830;2022-07-24T08:48:11;24.70;99.90
2729;DHT22;1372;47.956;7.830;2022-07-24T08:50:43;24.70;99.90
2729;DHT22;1372;47.956;7.830;2022-07-24T08:53:12;24.80;99.90
2729;DHT22;1372;47.956;7.830;2022-07-24T08:55:41;24.90;99.90
2729;DHT22;1372;47.956;7.830;2022-07-24T08:58:10;25.00;99.90
2729;DHT22;1372;47.956;7.830;2022-07-24T09:00:40;25.00;99.90
2729;DHT22;1372;47.956;7.830;2022-07-24T09:03:10;25.10;99.90
2729;DHT22;1372;47.956;7.830;2022-07-24T09:05:53;25.20;99.90
2729;DHT22;1372;47.956;7.830;2022-07-24T09:08:23;25.30;99.90
2729;DHT22;1372;47.956;7.830;2022-07-24T09:10:56;25.40;99.90
2729;DHT22;1372;47.956;7.830;2022-07-24T09:13:51;25.40;99.90
2729;DHT22;1372;47.956;7.830;2022-07-24T09:16:37;25.40;99.90
2729;DHT22;1372;47.956;7.830;2022-07-24T09:19:26;25.40;99.90
2729;DHT22;1372;47.956;7.830;2022-07-24T09:21:56;25.50;99.90
2729;DHT22;1372;47.956;7.830;2022-07-24T09:24:27;25.70;99.90
2729;DHT22;1372;47.956;7.830;2022-07-24T09:27:00;25.80;99.90
2729;DHT22;1372;47.956;7.830;2022-07-24T09:29:29;25.80;99.90
2729;DHT22;1372;47.956;7.830;2022-07-24T09:32:02;25.90;99.90
2729;DHT22;1372;47.956;7.830;2022-07-24T09:34:50;25.90;99.90
2729;DHT22;1372;47.956;7.830;2022-07-24T09:37:41;26.00;99.90
2729;DHT22;1372;47.956;7.830;2022-07-24T09:40:24;26.00;99.90
2729;DHT22;1372;47.956;7.830;2022-07-24T09:43:12;25.90;99.90
2729;DHT22;1372;47.956;7.830;2022-07-24T09:45:57;26.10;99.90
2729;DHT22;1372;47.956;7.830;2022-07-24T09:48:29;26.20;99.90
2729;DHT22;1372;47.956;7.830;2022-07-24T09:51:00;26.20;99.90
2729;DHT22;1372;47.956;7.830;2022-07-24T09:53:33;26.30;99.90
2729;DHT22;1372;47.956;7.830;2022-07-24T09:56:27;26.20;99.90
2729;DHT22;1372;47.956;7.830;2022-07-24T09:59:17;26.30;99.90
2729;DHT22;1372;47.956;7.830;2022-07-24T10:01:48;26.30;99.90
2729;DHT22;1372;47.956;7.830;2022-07-24T10:04:38;26.30;99.90
2729;DHT22;1372;47.956;7.830;2022-07-24T10:07:12;26.50;99.90
2729;DHT22;1372;47.956;7.830;2022-07-24T10:09:47;26.60;99.90
2729;DHT22;1372;47.956;7.830;2022-07-24T10:12:19;26.70;99.90
2729;DHT22;1372;47.956;7.830;2022-07-24T10:15:09;26.70;99.90
2729;DHT22;1372;47.956;7.830;2022-07-24T10:18:00;26.70;99.90
2729;DHT22;1372;47.956;7.830;2022-07-24T10:21:07;26.70;99.90
2729;DHT22;1372;47.956;7.830;2022-07-24T10:24:10;26.70;99.90
2729;DHT22;1372;47.956;7.830;2022-07-24T10:26:44;26.70;99.90
2729;DHT22;1372;47.956;7.830;2022-07-24T10:29:17;26.90;99.90
2729;DHT22;1372;47.956;7.830;2022-07-24T10:31:48;27.10;99.90
2729;DHT22;1372;47.956;7.830;2022-07-24T10:34:24;27.10;99.90
2729;DHT22;1372;47.956;7.830;2022-07-24T10:37:23;27.20;99.90
2729;DHT22;1372;47.956;7.830;2022-07-24T10:40:04;27.30;99.90
2729;DHT22;1372;47.956;7.830;2022-07-24T10:43:11;27.30;99.90
2729;DHT22;1372;47.956;7.830;2022-07-24T10:45:42;27.30;99.90
2729;DHT22;1372;47.956;7.830;2022-07-24T10:48:26;27.30;99.90
2729;DHT22;1372;47.956;7.830;2022-07-24T10:51:19;27.50;99.90
2729;DHT22;1372;47.956;7.830;2022-07-24T10:53:55;27.70;99.90
2729;DHT22;1372;47.956;7.830;2022-07-24T10:56:39;27.60;99.90
2729;DHT22;1372;47.956;7.830;2022-07-24T10:59:38;27.70;99.90
2729;DHT22;1372;47.956;7.830;2022-07-24T11:02:26;27.70;99.90
2729;DHT22;1372;47.956;7.830;2022-07-24T11:05:23;27.80;99.90
2729;DHT22;1372;47.956;7.830;2022-07-24T11:08:13;28.00;99.90
2729;DHT22;1372;47.956;7.830;2022-07-24T11:10:59;28.10;99.90
2729;DHT22;1372;47.956;7.830;2022-07-24T11:13:55;28.20;99.90
2729;DHT22;1372;47.956;7.830;2022-07-24T11:16:47;28.10;99.90
2729;DHT22;1372;47.956;7.830;2022-07-24T11:19:29;28.10;99.90
2729;DHT22;1372;47.956;7.830;2022-07-24T11:22:09;28.20;99.90
2729;DHT22;1372;47.956;7.830;2022-07-24T11:25:04;28.20;99.90
2729;DHT22;1372;47.956;7.830;2022-07-24T11:27:48;28.30;99.90
2729;DHT22;1372;47.956;7.830;2022-07-24T11:30:25;28.30;99.90
2729;DHT22;1372;47.956;7.830;2022-07-24T11:33:20;28.40;99.90
2729;DHT22;1372;47.956;7.830;2022-07-24T11:36:10;28.40;99.90
2729;DHT22;1372;47.956;7.830;2022-07-24T11:38:41;28.50;99.90
2729;DHT22;1372;47.956;7.830;2022-07-24T11:41:12;28.60;99.90
2729;DHT22;1372;47.956;7.830;2022-07-24T11:43:50;28.60;99.90
2729;DHT22;1372;47.956;7.830;2022-07-24T11:46:39;28.70;99.90
2729;DHT22;1372;47.956;7.830;2022-07-24T11:49:29;28.60;99.90
2729;DHT22;1372;47.956;7.830;2022-07-24T11:51:57;28.60;99.90
2729;DHT22;1372;47.956;7.830;2022-07-24T11:54:29;28.80;99.90
2729;DHT22;1372;47.956;7.830;2022-07-24T11:56:59;28.80;99.90
2729;DHT22;1372;47.956;7.830;2022-07-24T11:59:30;28.80;99.90
2729;DHT22;1372;47.956;7.830;2022-07-24T12:02:04;29.00;99.90
2729;DHT22;1372;47.956;7.830;2022-07-24T12:04:35;29.00;99.90
2729;DHT22;1372;47.956;7.830;2022-07-24T12:07:08;29.00;99.90
2729;DHT22;1372;47.956;7.830;2022-07-24T12:09:48;29.00;99.90
2729;DHT22;1372;47.956;7.830;2022-07-24T12:12:22;29.00;99.90
2729;DHT22;1372;47.956;7.830;2022-07-24T12:15:24;29.10;99.90
2729;DHT22;1372;47.956;7.830;2022-07-24T12:17:56;29.40;99.90
2729;DHT22;1372;47.956;7.830;2022-07-24T12:24:14;29.70;99.90
2729;DHT22;1372;47.956;7.830;2022-07-24T12:26:51;29.60;99.90
2729;DHT22;1372;47.956;7.830;2022-07-24T12:30:00;29.60;99.90
2729;DHT22;1372;47.956;7.830;2022-07-24T12:32:52;29.60;99.90
2729;DHT22;1372;47.956;7.830;2022-07-24T12:35:31;29.60;99.90
2729;DHT22;1372;47.956;7.830;2022-07-24T12:38:03;29.60;99.90
2729;DHT22;1372;47.956;7.830;2022-07-24T12:40:35;29.70;99.90
2729;DHT22;1372;47.956;7.830;2022-07-24T12:43:09;29.80;99.90
2729;DHT22;1372;47.956;7.830;2022-07-24T12:45:46;29.80;99.90
2729;DHT22;1372;47.956;7.830;2022-07-24T12:48:19;29.70;99.90
2729;DHT22;1372;47.956;7.830;2022-07-24T12:51:00;29.90;99.90
2729;DHT22;1372;47.956;7.830;2022-07-24T12:53:34;29.80;99.90
2729;DHT22;1372;47.956;7.830;2022-07-24T12:56:06;30.00;99.90
2729;DHT22;1372;47.956;7.830;2022-07-24T12:58:56;30.00;99.90
2729;DHT22;1372;47.956;7.830;2022-07-24T13:01:33;30.10;99.90
2729;DHT22;1372;47.956;7.830;2022-07-24T13:04:39;30.20;99.90
2729;DHT22;1372;47.956;7.830;2022-07-24T13:07:14;30.30;99.90
2729;DHT22;1372;47.956;7.830;2022-07-24T13:09:45;30.20;99.90
2729;DHT22;1372;47.956;7.830;2022-07-24T13:12:14;30.20;99.90
2729;DHT22;1372;47.956;7.830;2022-07-24T13:14:44;30.20;99.90
2729;DHT22;1372;47.956;7.830;2022-07-24T13:17:15;30.30;99.90
2729;DHT22;1372;47.956;7.830;2022-07-24T13:19:48;30.40;99.90
2729;DHT22;1372;47.956;7.830;2022-07-24T13:22:19;30.40;99.90
2729;DHT22;1372;47.956;7.830;2022-07-24T13:24:48;30.30;99.90
2729;DHT22;1372;47.956;7.830;2022-07-24T13:27:17;30.30;99.90
2729;DHT22;1372;47.956;7.830;2022-07-24T13:29:47;30.50;99.90
2729;DHT22;1372;47.956;7.830;2022-07-24T13:32:36;30.60;99.90
2729;DHT22;1372;47.956;7.830;2022-07-24T13:35:06;30.50;99.90
2729;DHT22;1372;47.956;7.830;2022-07-24T13:37:35;30.60;99.90
2729;DHT22;1372;47.956;7.830;2022-07-24T13:40:05;30.60;99.90
2729;DHT22;1372;47.956;7.830;2022-07-24T13:42:38;30.80;99.90
2729;DHT22;1372;47.956;7.830;2022-07-24T13:45:27;30.90;99.90
2729;DHT22;1372;47.956;7.830;2022-07-24T13:47:58;31.00;99.90
2729;DHT22;1372;47.956;7.830;2022-07-24T13:50:27;30.90;99.90
2729;DHT22;1372;47.956;7.830;2022-07-24T13:52:56;31.00;99.90
2729;DHT22;1372;47.956;7.830;2022-07-24T13:55:24;31.00;99.90
2729;DHT22;1372;47.956;7.830;2022-07-24T13:57:54;31.00;99.90
2729;DHT22;1372;47.956;7.830;2022-07-24T14:00:42;31.10;99.90
2729;DHT22;1372;47.956;7.830;2022-07-24T14:03:13;31.20;99.90
2729;DHT22;1372;47.956;7.830;2022-07-24T14:06:01;31.30;99.90
2729;DHT22;1372;47.956;7.830;2022-07-24T14:08:34;31.30;99.90
2729;DHT22;1372;47.956;7.830;2022-07-24T14:11:03;31.20;99.90
2729;DHT22;1372;47.956;7.830;2022-07-24T14:13:32;31.20;99.90
2729;DHT22;1372;47.956;7.830;2022-07-24T14:16:03;31.20;99.90
2729;DHT22;1372;47.956;7.830;2022-07-24T14:18:34;31.20;99.90
2729;DHT22;1372;47.956;7.830;2022-07-24T14:21:03;31.30;99.90
2729;DHT22;1372;47.956;7.830;2022-07-24T14:23:33;31.40;99.90
2729;DHT22;1372;47.956;7.830;2022-07-24T14:26:02;31.40;99.90
2729;DHT22;1372;47.956;7.830;2022-07-24T14:28:33;31.50;99.90
2729;DHT22;1372;47.956;7.830;2022-07-24T14:31:05;31.50;99.90
2729;DHT22;1372;47.956;7.830;2022-07-24T14:33:54;31.50;99.90
2729;DHT22;1372;47.956;7.830;2022-07-24T14:36:22;31.70;99.90
2729;DHT22;1372;47.956;7.830;2022-07-24T14:38:51;31.70;99.90
2729;DHT22;1372;47.956;7.830;2022-07-24T14:41:20;31.70;99.90
2729;DHT22;1372;47.956;7.830;2022-07-24T14:43:49;32.00;99.90
2729;DHT22;1372;47.956;7.830;2022-07-24T14:46:18;32.00;99.90
2729;DHT22;1372;47.956;7.830;2022-07-24T14:48:47;31.90;99.90
2729;DHT22;1372;47.956;7.830;2022-07-24T14:51:18;31.90;99.90
2729;DHT22;1372;47.956;7.830;2022-07-24T14:53:46;31.80;99.90
2729;DHT22;1372;47.956;7.830;2022-07-24T14:56:15;31.80;99.90
2729;DHT22;1372;47.956;7.830;2022-07-24T14:58:47;32.00;99.90
2729;DHT22;1372;47.956;7.830;2022-07-24T15:01:16;32.20;99.90
2729;DHT22;1372;47.956;7.830;2022-07-24T15:04:05;32.20;99.90
2729;DHT22;1372;47.956;7.830;2022-07-24T15:06:52;32.30;99.90
2729;DHT22;1372;47.956;7.830;2022-07-24T15:09:21;32.20;99.90
2729;DHT22;1372;47.956;7.830;2022-07-24T15:11:50;32.20;99.90
2729;DHT22;1372;47.956;7.830;2022-07-24T15:14:21;32.50;99.90
2729;DHT22;1372;47.956;7.830;2022-07-24T15:16:50;32.40;99.90
2729;DHT22;1372;47.956;7.830;2022-07-24T15:19:19;32.40;99.90
2729;DHT22;1372;47.956;7.830;2022-07-24T15:21:48;32.50;99.90
2729;DHT22;1372;47.956;7.830;2022-07-24T15:24:18;32.50;99.90
2729;DHT22;1372;47.956;7.830;2022-07-24T15:26:52;32.50;99.90
2729;DHT22;1372;47.956;7.830;2022-07-24T15:29:21;32.50;99.90
2729;DHT22;1372;47.956;7.830;2022-07-24T15:32:07;32.70;99.90
2729;DHT22;1372;47.956;7.830;2022-07-24T15:34:36;32.70;99.90
2729;DHT22;1372;47.956;7.830;2022-07-24T15:37:07;32.70;99.90
2729;DHT22;1372;47.956;7.830;2022-07-24T15:39:37;32.70;99.90
2729;DHT22;1372;47.956;7.830;2022-07-24T15:42:06;32.70;99.90
2729;DHT22;1372;47.956;7.830;2022-07-24T15:44:35;32.60;99.90
2729;DHT22;1372;47.956;7.830;2022-07-24T15:47:05;32.60;99.90
2729;DHT22;1372;47.956;7.830;2022-07-24T15:49:34;32.50;99.90
2729;DHT22;1372;47.956;7.830;2022-07-24T15:52:03;32.50;99.90
2729;DHT22;1372;47.956;7.830;2022-07-24T15:54:33;32.40;99.90
2729;DHT22;1372;47.956;7.830;2022-07-24T15:57:24;32.40;99.90
2729;DHT22;1372;47.956;7.830;2022-07-24T15:59:53;32.30;99.90
2729;DHT22;1372;47.956;7.830;2022-07-24T16:02:22;32.30;99.90
2729;DHT22;1372;47.956;7.830;2022-07-24T16:04:51;32.30;99.90
2729;DHT22;1372;47.956;7.830;2022-07-24T16:07:21;32.40;99.90
2729;DHT22;1372;47.956;7.830;2022-07-24T16:09:50;32.40;99.90
2729;DHT22;1372;47.956;7.830;2022-07-24T16:12:19;32.50;99.90
2729;DHT22;1372;47.956;7.830;2022-07-24T16:14:51;32.40;99.90
2729;DHT22;1372;47.956;7.830;2022-07-24T16:17:20;32.30;99.90
2729;DHT22;1372;47.956;7.830;2022-07-24T16:19:52;32.20;99.90
2729;DHT22;1372;47.956;7.830;2022-07-24T16:22:21;32.20;99.90
2729;DHT22;1372;47.956;7.830;2022-07-24T16:24:50;32.20;99.90
2729;DHT22;1372;47.956;7.830;2022-07-24T16:27:19;32.20;99.90
2729;DHT22;1372;47.956;7.830;2022-07-24T16:29:48;32.10;99.90
2729;DHT22;1372;47.956;7.830;2022-07-24T16:32:18;32.10;99.90
2729;DHT22;1372;47.956;7.830;2022-07-24T16:34:47;32.00;99.90
2729;DHT22;1372;47.956;7.830;2022-07-24T16:37:16;32.10;99.90
2729;DHT22;1372;47.956;7.830;2022-07-24T16:39:45;32.00;99.90
2729;DHT22;1372;47.956;7.830;2022-07-24T16:42:33;32.00;99.90
2729;DHT22;1372;47.956;7.830;2022-07-24T16:45:03;32.00;99.90
2729;DHT22;1372;47.956;7.830;2022-07-24T16:47:52;32.00;99.90
2729;DHT22;1372;47.956;7.830;2022-07-24T16:50:21;31.80;99.90
2729;DHT22;1372;47.956;7.830;2022-07-24T16:52:50;31.70;99.90
2729;DHT22;1372;47.956;7.830;2022-07-24T16:55:20;31.70;99.90